Ocean Highway — H3IE — position and weather

sailwx.info

Track history (hours):
 
Tides and Currents Weather Stations Pressure Air Temp Water Temp Dewpoint Dewpoint Depression Visibility Wind Speed Wind Dir Waves Ship Positions

Ocean Highway

Last reported at 2016-Dec-01 19:33 UTC. Time now 2016-Dec-08 09:55 UTC.
Position N 01°13' E 103°54'.

Length 179.1 m; beam 32.2 m.

Type: Cargo ship. MMSI: 353951000.

Date/timePositionNaut miles runAvg speedWind from/ knotsBaromVisibWave heightAir tempDewpointWater temp
2016-Dec-01 19:33N 01°13' E 103°54'8 7.9
2016-Dec-01 18:34N 01°14' E 103°47'3 2.4
2016-Dec-01 17:16N 01°17' E 103°45'0 0.0
2016-Dec-01 12:25N 01°17' E 103°45'0 0.0
2016-Dec-01 11:04N 01°17' E 103°45'0 0.0
2016-Dec-01 10:28N 01°17' E 103°45'2 1.7
2016-Dec-01 09:33N 01°16' E 103°46'8 8.0
2016-Dec-01 08:33N 01°13' E 103°53'7 6.5
2016-Dec-01 07:31N 01°15' E 103°60'  
Track history (hours):
 
Tides and Currents Weather Stations Pressure Air Temp Water Temp Dewpoint Dewpoint Depression Visibility Wind Speed Wind Dir Waves Ship Positions

Ocean Highway

Last reported at 2016-Dec-01 19:33 UTC. Time now 2016-Dec-08 09:55 UTC.
Position N 01°13' E 103°54'.

Length 179.1 m; beam 32.2 m.

Type: Cargo ship. MMSI: 353951000.

Date/timePositionNaut miles runAvg speedWind from/ knotsBaromVisibWave heightAir tempDewpointWater temp
2016-Dec-01 19:33N 01°13' E 103°54'8 7.9
2016-Dec-01 18:34N 01°14' E 103°47'3 2.4
2016-Dec-01 17:16N 01°17' E 103°45'0 0.0
2016-Dec-01 12:25N 01°17' E 103°45'0 0.0
2016-Dec-01 11:04N 01°17' E 103°45'0 0.0
2016-Dec-01 10:28N 01°17' E 103°45'2 1.7
2016-Dec-01 09:33N 01°16' E 103°46'8 8.0
2016-Dec-01 08:33N 01°13' E 103°53'7 6.5
2016-Dec-01 07:31N 01°15' E 103°60'  

Dump ship's entire track history